createdAt,value
2023-05-19T00:01:19.601Z,1.90
2023-05-19T00:03:54.343Z,1.98
2023-05-19T00:06:26.832Z,2.00
2023-05-19T00:09:04.936Z,1.70
2023-05-19T00:11:31.829Z,1.88
2023-05-19T00:14:00.173Z,2.08
2023-05-19T00:16:28.051Z,2.08
2023-05-19T00:18:54.750Z,2.10
2023-05-19T00:21:21.324Z,2.47
2023-05-19T00:23:47.890Z,1.90
2023-05-19T00:26:14.419Z,1.90
2023-05-19T00:28:41.001Z,2.10
2023-05-19T00:31:08.014Z,1.80
2023-05-19T00:33:34.605Z,1.90
2023-05-19T00:36:05.744Z,1.80
2023-05-19T00:38:33.857Z,1.80
2023-05-19T00:41:01.832Z,1.80
2023-05-19T00:43:30.083Z,1.65
2023-05-19T00:45:57.595Z,1.50
2023-05-19T00:48:25.717Z,2.35
2023-05-19T00:50:55.022Z,2.03
2023-05-19T00:53:23.333Z,1.75
2023-05-19T00:55:50.537Z,2.10
2023-05-19T00:58:17.782Z,2.03
2023-05-19T01:00:44.475Z,2.10
2023-05-19T01:03:11.784Z,2.10
2023-05-19T01:05:44.821Z,2.13
2023-05-19T01:08:11.882Z,2.03
2023-05-19T01:10:38.428Z,1.70
2023-05-19T01:13:06.132Z,2.13
2023-05-19T01:16:12.666Z,2.05
2023-05-19T01:19:01.848Z,2.05
2023-05-19T01:22:13.308Z,2.20
2023-05-19T01:24:53.461Z,2.10
2023-05-19T01:27:41.198Z,2.03
2023-05-19T01:30:27.328Z,2.17
2023-05-19T01:32:58.338Z,1.70
2023-05-19T01:35:26.205Z,1.83
2023-05-19T01:37:56.822Z,1.90
2023-05-19T01:40:24.920Z,1.80
2023-05-19T01:42:57.396Z,2.42
2023-05-19T01:45:27.982Z,2.47
2023-05-19T01:47:56.981Z,2.40
2023-05-19T01:50:23.700Z,2.00
2023-05-19T01:52:50.467Z,2.20
2023-05-19T01:55:17.172Z,2.63
2023-05-19T01:58:02.519Z,2.10
2023-05-19T02:00:38.218Z,2.35
2023-05-19T02:03:07.827Z,1.77
2023-05-19T02:05:59.284Z,1.80
2023-05-19T02:08:30.430Z,2.42
2023-05-19T02:11:09.681Z,2.47
2023-05-19T02:13:42.156Z,2.65
2023-05-19T02:16:10.868Z,2.23
2023-05-19T02:18:37.554Z,2.53
2023-05-19T02:21:04.348Z,2.13
2023-05-19T02:23:31.284Z,1.88
2023-05-19T02:25:57.842Z,2.00
2023-05-19T02:28:28.290Z,1.93
2023-05-19T02:30:54.917Z,2.20
2023-05-19T02:33:24.575Z,2.15
2023-05-19T02:35:51.326Z,2.50
2023-05-19T02:38:18.096Z,2.10
2023-05-19T02:40:44.752Z,1.93
2023-05-19T02:43:11.458Z,2.38
2023-05-19T02:45:38.050Z,2.60
2023-05-19T02:48:04.925Z,2.60
2023-05-19T02:50:31.695Z,2.60
2023-05-19T02:52:58.366Z,2.47
2023-05-19T02:55:24.940Z,2.58
2023-05-19T02:57:51.504Z,2.75
2023-05-19T03:00:18.186Z,2.40
2023-05-19T03:02:44.923Z,2.45
2023-05-19T03:05:11.719Z,2.17
2023-05-19T03:07:38.277Z,2.67
2023-05-19T03:10:06.636Z,2.65
2023-05-19T03:12:33.633Z,2.10
2023-05-19T03:15:00.742Z,2.42
2023-05-19T03:17:28.725Z,2.77
2023-05-19T03:19:56.028Z,2.65
2023-05-19T03:22:22.586Z,2.72
2023-05-19T03:24:51.081Z,2.80
2023-05-19T03:27:17.640Z,2.92
2023-05-19T03:29:44.147Z,2.43
2023-05-19T03:32:10.690Z,2.75
2023-05-19T03:34:37.197Z,2.70
2023-05-19T03:37:03.827Z,2.38
2023-05-19T03:39:30.351Z,2.50
2023-05-19T03:41:56.847Z,2.60
2023-05-19T03:44:23.426Z,2.40
2023-05-19T03:46:49.967Z,3.00
2023-05-19T03:49:16.581Z,2.45
2023-05-19T03:51:44.266Z,2.53
2023-05-19T03:54:10.810Z,2.60
2023-05-19T03:56:42.177Z,2.83
2023-05-19T03:59:10.845Z,2.88
2023-05-19T04:01:37.453Z,3.33
2023-05-19T04:04:04.179Z,2.88
2023-05-19T04:06:31.084Z,2.33
2023-05-19T04:08:57.662Z,2.58
2023-05-19T04:11:24.246Z,2.78
2023-05-19T04:13:51.046Z,2.35
2023-05-19T04:16:17.769Z,2.95
2023-05-19T04:18:46.386Z,2.80
2023-05-19T04:21:12.990Z,3.00
2023-05-19T04:23:39.550Z,2.70
2023-05-19T04:26:06.879Z,3.03
2023-05-19T04:28:36.230Z,2.58
2023-05-19T04:31:03.576Z,2.37
2023-05-19T04:33:30.166Z,2.72
2023-05-19T04:35:56.935Z,3.03
2023-05-19T04:38:23.442Z,2.92
2023-05-19T04:40:51.987Z,3.05
2023-05-19T04:43:19.344Z,3.20
2023-05-19T04:45:46.549Z,2.58
2023-05-19T04:48:14.004Z,3.28
2023-05-19T04:50:42.241Z,2.80
2023-05-19T04:53:12.007Z,3.28
2023-05-19T04:55:38.819Z,3.33
2023-05-19T04:58:05.548Z,3.00
2023-05-19T05:00:33.028Z,2.80
2023-05-19T05:02:59.700Z,3.00
2023-05-19T05:05:26.292Z,2.88
2023-05-19T05:07:54.095Z,2.93
2023-05-19T05:10:21.807Z,3.58
2023-05-19T05:12:48.796Z,3.50
2023-05-19T05:15:16.037Z,3.10
2023-05-19T05:17:43.652Z,3.13
2023-05-19T05:20:11.773Z,3.37
2023-05-19T05:22:41.102Z,4.22
2023-05-19T05:25:08.601Z,3.22
2023-05-19T05:27:35.256Z,2.72
2023-05-19T05:30:02.086Z,3.30
2023-05-19T05:32:28.946Z,3.40
2023-05-19T05:34:55.626Z,3.53
2023-05-19T05:37:22.183Z,3.45
2023-05-19T05:39:48.792Z,3.78
2023-05-19T05:42:16.143Z,3.50
2023-05-19T05:44:42.742Z,3.47
2023-05-19T05:47:09.690Z,3.83
2023-05-19T05:49:38.191Z,4.13
2023-05-19T05:52:06.926Z,3.45
2023-05-19T05:54:34.069Z,3.22
2023-05-19T05:57:02.462Z,3.27
2023-05-19T05:59:28.999Z,3.72
2023-05-19T06:01:55.739Z,3.25
2023-05-19T06:04:22.323Z,3.72
2023-05-19T06:06:48.853Z,3.67
2023-05-19T06:09:17.872Z,3.57
2023-05-19T06:11:44.440Z,3.72
2023-05-19T06:14:11.034Z,3.70
2023-05-19T06:16:37.810Z,3.50
2023-05-19T06:19:04.563Z,3.53
2023-05-19T06:21:31.481Z,3.10
2023-05-19T06:23:58.068Z,3.90
2023-05-19T06:26:24.647Z,3.33
2023-05-19T06:28:51.395Z,3.50
2023-05-19T06:31:18.069Z,4.05
2023-05-19T06:33:44.677Z,3.67
2023-05-19T06:36:12.043Z,3.72
2023-05-19T06:38:38.628Z,3.20
2023-05-19T06:41:05.110Z,4.00
2023-05-19T06:43:31.787Z,3.75
2023-05-19T06:45:58.325Z,3.70
2023-05-19T06:48:24.987Z,3.75
2023-05-19T06:50:52.127Z,3.50
2023-05-19T06:53:19.913Z,4.03
2023-05-19T06:55:58.056Z,3.80
2023-05-19T06:58:26.657Z,3.57
2023-05-19T07:00:53.352Z,3.25
2023-05-19T07:03:20.066Z,4.13
2023-05-19T07:05:46.732Z,3.60
2023-05-19T07:08:13.254Z,3.80
2023-05-19T07:10:39.833Z,3.77
2023-05-19T07:13:06.522Z,3.50
2023-05-19T07:15:33.605Z,3.20
2023-05-19T07:18:00.343Z,3.22
2023-05-19T07:20:27.014Z,3.63
2023-05-19T07:22:53.602Z,3.40
2023-05-19T07:25:20.338Z,3.42
2023-05-19T07:27:46.867Z,3.20
2023-05-19T07:30:13.925Z,2.90
2023-05-19T07:32:40.570Z,2.70
2023-05-19T07:35:07.307Z,2.80
2023-05-19T07:37:33.906Z,2.60
2023-05-19T07:40:00.468Z,3.00
2023-05-19T07:42:27.041Z,3.22
2023-05-19T07:44:53.618Z,2.63
2023-05-19T07:47:20.259Z,2.10
2023-05-19T07:49:49.123Z,2.42
2023-05-19T07:52:18.304Z,2.35
2023-05-19T07:54:45.793Z,2.13
2023-05-19T07:57:12.514Z,2.15
2023-05-19T07:59:39.009Z,1.93
2023-05-19T08:02:05.764Z,1.90
2023-05-19T08:04:32.945Z,2.35
2023-05-19T08:07:02.160Z,2.30
2023-05-19T08:09:28.814Z,1.63
2023-05-19T08:11:55.466Z,1.57
2023-05-19T08:14:22.932Z,1.30
2023-05-19T08:16:50.146Z,1.50
2023-05-19T08:19:16.776Z,1.45
2023-05-19T08:21:44.759Z,1.27
2023-05-19T08:24:11.689Z,1.50
2023-05-19T08:26:38.337Z,1.40
2023-05-19T08:29:04.893Z,1.27
2023-05-19T08:31:31.751Z,1.63
2023-05-19T08:33:58.281Z,1.30
2023-05-19T08:36:24.873Z,1.77
2023-05-19T08:38:51.587Z,1.48
2023-05-19T08:41:18.300Z,1.13
2023-05-19T08:43:45.417Z,1.25
2023-05-19T08:46:13.836Z,1.10
2023-05-19T08:48:42.944Z,1.13
2023-05-19T08:51:31.984Z,0.70
2023-05-19T08:54:09.252Z,1.00
2023-05-19T08:56:36.739Z,0.80
2023-05-19T08:59:04.138Z,0.70
2023-05-19T09:01:31.416Z,0.87
2023-05-19T09:03:58.579Z,1.17
2023-05-19T09:06:26.507Z,0.88
2023-05-19T09:08:53.257Z,1.30
2023-05-19T09:11:19.828Z,1.15
2023-05-19T09:13:46.992Z,1.20
2023-05-19T09:16:13.593Z,1.17
2023-05-19T09:18:40.966Z,1.42
2023-05-19T09:21:07.997Z,1.30
2023-05-19T09:23:34.882Z,1.17
2023-05-19T09:26:08.379Z,1.13
2023-05-19T09:28:37.801Z,1.00
2023-05-19T09:31:11.218Z,1.35
2023-05-19T09:33:39.427Z,1.20
2023-05-19T09:36:08.319Z,1.10
2023-05-19T09:38:36.258Z,1.10
2023-05-19T09:41:04.560Z,1.45
2023-05-19T09:43:33.498Z,1.20
2023-05-19T09:46:01.674Z,1.15
2023-05-19T09:48:28.366Z,1.10
2023-05-19T09:50:55.076Z,1.03
2023-05-19T09:53:22.516Z,1.05
2023-05-19T09:55:49.960Z,1.20
2023-05-19T09:58:18.969Z,1.10
2023-05-19T10:00:47.296Z,1.10
2023-05-19T10:03:14.782Z,1.30
2023-05-19T10:05:42.075Z,1.00
2023-05-19T10:08:10.549Z,1.20
2023-05-19T10:10:38.701Z,1.08
2023-05-19T10:13:06.329Z,1.35
2023-05-19T10:15:40.740Z,1.10
2023-05-19T10:18:17.697Z,1.20
2023-05-19T10:20:44.330Z,1.20
2023-05-19T10:23:10.951Z,1.00
2023-05-19T10:25:38.585Z,1.10
2023-05-19T10:28:14.878Z,1.20
2023-05-19T10:30:44.832Z,1.30
2023-05-19T10:33:15.448Z,1.88
2023-05-19T10:35:45.387Z,1.40
2023-05-19T10:38:42.830Z,0.98
2023-05-19T10:41:28.166Z,1.27
2023-05-19T10:44:02.606Z,1.20
2023-05-19T10:46:30.643Z,1.40
2023-05-19T10:48:57.495Z,1.50
2023-05-19T10:51:34.647Z,1.25
2023-05-19T10:54:10.437Z,1.40
2023-05-19T10:56:42.320Z,1.20
2023-05-19T10:59:33.237Z,1.20
2023-05-19T11:02:06.986Z,1.48
2023-05-19T11:04:51.633Z,1.38
2023-05-19T11:07:20.453Z,1.40
2023-05-19T11:09:53.498Z,1.55
2023-05-19T11:12:21.969Z,1.38
2023-05-19T11:14:48.761Z,1.50
2023-05-19T11:17:16.291Z,1.38
2023-05-19T11:19:54.577Z,1.00
2023-05-19T11:22:26.202Z,1.23
2023-05-19T11:24:55.127Z,1.30
2023-05-19T11:27:28.336Z,1.02
2023-05-19T11:29:57.211Z,1.30
2023-05-19T11:32:27.442Z,1.10
2023-05-19T11:34:55.849Z,0.80
2023-05-19T11:37:22.616Z,1.20
2023-05-19T11:39:49.951Z,1.30
2023-05-19T11:42:16.607Z,1.20
2023-05-19T11:44:46.742Z,1.20
2023-05-19T11:47:14.457Z,1.17
2023-05-19T11:49:59.924Z,1.38
2023-05-19T11:52:30.454Z,1.10
2023-05-19T11:55:01.585Z,1.40
2023-05-19T11:57:28.261Z,1.10
2023-05-19T11:59:56.794Z,1.00
2023-05-19T12:02:27.995Z,1.00
2023-05-19T12:04:54.923Z,1.17
2023-05-19T12:07:24.998Z,0.80
2023-05-19T12:09:52.944Z,0.70
2023-05-19T12:12:21.194Z,0.98
2023-05-19T12:14:52.565Z,1.10
2023-05-19T12:17:21.211Z,0.90
2023-05-19T12:19:50.114Z,0.95
2023-05-19T12:22:17.598Z,0.90
2023-05-19T12:24:46.040Z,1.00
2023-05-19T12:27:17.001Z,1.17
2023-05-19T12:29:43.666Z,0.88
2023-05-19T12:32:10.425Z,1.38
2023-05-19T12:34:38.224Z,1.17
2023-05-19T12:37:06.002Z,1.10
2023-05-19T12:39:33.791Z,1.33
2023-05-19T12:42:04.516Z,1.38
2023-05-19T12:44:33.558Z,1.60
2023-05-19T12:47:00.598Z,1.60
2023-05-19T12:49:27.174Z,2.05
2023-05-19T12:51:54.409Z,2.38
2023-05-19T12:54:22.066Z,2.40
2023-05-19T12:56:50.664Z,1.92
2023-05-19T12:59:37.370Z,1.73
2023-05-19T13:02:05.323Z,1.65
2023-05-19T13:04:32.007Z,1.70
2023-05-19T13:06:58.540Z,1.85
2023-05-19T13:09:25.158Z,1.70
2023-05-19T13:11:53.957Z,1.40
2023-05-19T13:14:20.822Z,1.55
2023-05-19T13:16:47.498Z,1.73
2023-05-19T13:21:51.176Z,1.67
2023-05-19T13:24:17.703Z,1.47
2023-05-19T13:26:45.606Z,1.40
2023-05-19T13:29:12.225Z,1.58
2023-05-19T13:31:38.986Z,1.65
2023-05-19T13:34:05.637Z,1.75
2023-05-19T13:36:33.362Z,1.70
2023-05-19T13:39:00.994Z,1.40
2023-05-19T13:41:29.585Z,1.60
2023-05-19T13:43:59.643Z,1.90
2023-05-19T13:46:40.799Z,2.22
2023-05-19T13:49:11.034Z,1.60
2023-05-19T13:51:37.663Z,2.00
2023-05-19T13:54:04.709Z,1.50
2023-05-19T13:56:31.742Z,1.85
2023-05-19T13:58:58.343Z,2.00
2023-05-19T14:01:25.435Z,1.40
2023-05-19T14:03:52.569Z,1.48
2023-05-19T14:06:19.705Z,1.50
2023-05-19T14:08:46.427Z,1.40
2023-05-19T14:11:21.852Z,1.27
2023-05-19T14:13:52.530Z,2.00
2023-05-19T14:16:20.558Z,1.48
2023-05-19T14:18:47.373Z,1.30
2023-05-19T14:21:14.966Z,1.48
2023-05-19T14:23:41.676Z,1.52
2023-05-19T14:26:08.227Z,1.10
2023-05-19T14:28:34.756Z,1.10
2023-05-19T14:31:01.489Z,1.00
2023-05-19T14:33:28.280Z,0.98
2023-05-19T14:35:56.013Z,1.20
2023-05-19T14:38:22.701Z,1.30
2023-05-19T14:40:49.257Z,1.15
2023-05-19T14:43:15.929Z,1.13
2023-05-19T14:45:42.617Z,1.15
2023-05-19T14:48:11.031Z,1.30
2023-05-19T14:50:38.428Z,1.17
2023-05-19T14:53:05.366Z,1.08
2023-05-19T14:55:32.214Z,1.13
2023-05-19T14:57:58.784Z,1.25
2023-05-19T15:00:28.211Z,1.30
2023-05-19T15:02:55.136Z,1.13
2023-05-19T15:05:24.156Z,1.27
2023-05-19T15:07:51.281Z,2.08
2023-05-19T15:10:20.506Z,1.40
2023-05-19T15:12:47.080Z,1.50
2023-05-19T15:15:15.829Z,1.37
2023-05-19T15:17:42.718Z,1.30
2023-05-19T15:20:09.620Z,1.00
2023-05-19T15:22:36.448Z,1.20
2023-05-19T15:25:03.042Z,1.25
2023-05-19T15:27:29.586Z,1.33
2023-05-19T15:29:56.276Z,1.30
2023-05-19T15:32:22.890Z,1.10
2023-05-19T15:34:49.505Z,1.02
2023-05-19T15:37:16.539Z,1.15
2023-05-19T15:39:43.111Z,1.37
2023-05-19T15:42:09.668Z,1.10
2023-05-19T15:44:36.662Z,1.50
2023-05-19T15:47:03.311Z,1.20
2023-05-19T15:49:29.914Z,1.35
2023-05-19T15:51:56.498Z,1.80
2023-05-19T15:54:23.105Z,1.40
2023-05-19T15:56:49.740Z,0.90
2023-05-19T15:59:16.331Z,1.10
2023-05-19T16:01:43.014Z,1.27
2023-05-19T16:04:09.724Z,1.20
2023-05-19T16:06:36.345Z,1.13
2023-05-19T16:09:03.109Z,1.17
2023-05-19T16:11:29.791Z,1.30
2023-05-19T16:13:56.331Z,1.40
2023-05-19T16:16:23.033Z,1.20
2023-05-19T16:18:49.728Z,1.70
2023-05-19T16:21:16.302Z,1.42
2023-05-19T16:23:42.868Z,1.35
2023-05-19T16:26:09.410Z,1.35
2023-05-19T16:28:35.987Z,1.90
2023-05-19T16:31:02.534Z,1.60
2023-05-19T16:33:30.053Z,1.02
2023-05-19T16:35:58.787Z,1.10
2023-05-19T16:38:26.681Z,1.30
2023-05-19T16:40:53.366Z,1.20
2023-05-19T16:43:19.884Z,1.20
2023-05-19T16:45:46.574Z,1.40
2023-05-19T16:48:13.198Z,1.05
2023-05-19T16:50:39.910Z,1.10
2023-05-19T16:53:06.517Z,1.30
2023-05-19T16:55:33.049Z,1.23
2023-05-19T16:57:59.710Z,1.42
2023-05-19T17:00:27.370Z,1.33
2023-05-19T17:02:54.084Z,1.40
2023-05-19T17:05:21.126Z,1.20
2023-05-19T17:07:47.669Z,1.20
2023-05-19T17:10:14.435Z,1.10
2023-05-19T17:12:41.049Z,1.33
2023-05-19T17:15:07.983Z,1.17
2023-05-19T17:17:34.547Z,1.30
2023-05-19T17:20:01.386Z,1.50
2023-05-19T17:22:29.993Z,1.52
2023-05-19T17:24:57.433Z,1.30
2023-05-19T17:27:23.948Z,1.60
2023-05-19T17:29:50.523Z,1.40
2023-05-19T17:32:17.233Z,1.25
2023-05-19T17:34:43.848Z,1.20
2023-05-19T17:37:10.629Z,1.27
2023-05-19T17:39:37.204Z,1.30
2023-05-19T17:42:03.966Z,0.97
2023-05-19T17:44:30.487Z,1.17
2023-05-19T17:46:57.063Z,1.45
2023-05-19T17:49:25.631Z,1.30
2023-05-19T17:51:52.513Z,1.30
2023-05-19T17:54:19.438Z,1.23
2023-05-19T17:56:46.464Z,1.20
2023-05-19T17:59:13.188Z,1.38
2023-05-19T18:01:40.794Z,1.10
2023-05-19T18:04:08.156Z,1.15
2023-05-19T18:06:37.568Z,1.47
2023-05-19T18:09:08.895Z,1.00
2023-05-19T18:11:36.090Z,1.30
2023-05-19T18:14:02.735Z,1.20
2023-05-19T18:16:29.541Z,1.20
2023-05-19T18:18:56.182Z,1.07
2023-05-19T18:21:24.335Z,1.40
2023-05-19T18:23:51.465Z,1.30
2023-05-19T18:26:17.997Z,1.20
2023-05-19T18:28:44.716Z,1.17
2023-05-19T18:31:17.369Z,1.30
2023-05-19T18:33:45.886Z,1.33
2023-05-19T18:36:13.642Z,1.33
2023-05-19T18:38:41.071Z,1.40
2023-05-19T18:41:08.372Z,1.25
2023-05-19T18:43:35.020Z,0.90
2023-05-19T18:46:01.601Z,1.20
2023-05-19T18:48:29.475Z,1.55
2023-05-19T18:50:57.222Z,1.20
2023-05-19T18:53:23.804Z,1.35
2023-05-19T18:55:50.357Z,1.13
2023-05-19T18:58:18.289Z,1.38
2023-05-19T19:00:44.910Z,1.35
2023-05-19T19:03:11.925Z,1.60
2023-05-19T19:05:38.655Z,1.40
2023-05-19T19:08:05.680Z,1.20
2023-05-19T19:10:34.754Z,1.15
2023-05-19T19:13:01.549Z,1.52
2023-05-19T19:15:28.353Z,1.13
2023-05-19T19:17:55.134Z,1.83
2023-05-19T19:20:21.759Z,1.20
2023-05-19T19:22:48.335Z,1.17
2023-05-19T19:25:14.950Z,1.10
2023-05-19T19:27:41.536Z,1.10
2023-05-19T19:30:08.880Z,1.20
2023-05-19T19:32:35.554Z,1.10
2023-05-19T19:35:02.209Z,1.17
2023-05-19T19:37:28.735Z,1.20
2023-05-19T19:39:55.445Z,1.27
2023-05-19T19:42:21.960Z,1.20
2023-05-19T19:44:48.542Z,0.90
2023-05-19T19:47:15.125Z,1.17
2023-05-19T19:49:42.118Z,1.20
2023-05-19T19:52:08.635Z,1.30
2023-05-19T19:54:35.166Z,1.38
2023-05-19T19:57:01.739Z,1.13
2023-05-19T19:59:28.391Z,1.17
2023-05-19T20:01:55.002Z,1.10
2023-05-19T20:04:21.620Z,1.50
2023-05-19T20:06:49.625Z,1.25
2023-05-19T20:09:16.624Z,1.30
2023-05-19T20:11:43.596Z,1.50
2023-05-19T20:14:10.120Z,1.50
2023-05-19T20:16:36.704Z,1.20
2023-05-19T20:19:03.380Z,1.45
2023-05-19T20:21:29.945Z,1.50
2023-05-19T20:23:56.468Z,1.50
2023-05-19T20:26:23.046Z,1.52
2023-05-19T20:28:49.557Z,1.70
2023-05-19T20:31:16.100Z,1.60
2023-05-19T20:33:42.737Z,2.10
2023-05-19T20:36:10.942Z,1.80
2023-05-19T20:38:37.638Z,2.13
2023-05-19T20:41:04.149Z,1.92
2023-05-19T20:43:32.042Z,2.30
2023-05-19T20:45:59.650Z,2.13
2023-05-19T20:48:26.245Z,2.30
2023-05-19T20:50:54.135Z,2.47
2023-05-19T20:53:21.542Z,2.10
2023-05-19T20:55:48.441Z,2.40
2023-05-19T20:58:15.168Z,2.20
2023-05-19T21:00:41.729Z,2.85
2023-05-19T21:03:08.911Z,2.30
2023-05-19T21:05:40.616Z,2.45
2023-05-19T21:08:12.662Z,2.20
2023-05-19T21:10:39.409Z,2.20
2023-05-19T21:13:06.022Z,2.08
2023-05-19T21:15:32.550Z,2.85
2023-05-19T21:17:59.275Z,1.95
2023-05-19T21:20:27.409Z,2.55
2023-05-19T21:22:53.913Z,2.20
2023-05-19T21:25:20.613Z,2.47
2023-05-19T21:27:47.512Z,2.00
2023-05-19T21:30:14.496Z,2.20
2023-05-19T21:32:41.240Z,2.65
2023-05-19T21:35:08.217Z,2.70
2023-05-19T21:37:34.820Z,2.60
2023-05-19T21:40:01.590Z,2.20
2023-05-19T21:42:28.120Z,2.70
2023-05-19T21:44:54.767Z,2.47
2023-05-19T21:47:24.904Z,2.13
2023-05-19T21:49:51.401Z,2.38
2023-05-19T21:52:19.005Z,2.50
2023-05-19T21:54:45.780Z,2.20
2023-05-19T21:57:12.642Z,2.30
2023-05-19T21:59:40.640Z,2.40
2023-05-19T22:02:07.482Z,2.55
2023-05-19T22:04:34.145Z,2.10
2023-05-19T22:07:01.054Z,2.50
2023-05-19T22:09:27.666Z,2.03
2023-05-19T22:11:55.654Z,2.17
2023-05-19T22:14:22.272Z,1.98
2023-05-19T22:16:49.089Z,1.55
2023-05-19T22:19:16.380Z,2.25
2023-05-19T22:21:42.993Z,2.53
2023-05-19T22:24:09.625Z,1.90
2023-05-19T22:26:36.372Z,2.50
2023-05-19T22:29:03.463Z,1.90
2023-05-19T22:31:29.971Z,2.20
2023-05-19T22:33:56.830Z,2.30
2023-05-19T22:36:23.636Z,2.00
2023-05-19T22:38:50.393Z,1.73
2023-05-19T22:41:16.904Z,2.10
2023-05-19T22:43:43.783Z,2.17
2023-05-19T22:46:10.687Z,2.03
2023-05-19T22:48:37.291Z,2.07
2023-05-19T22:51:04.396Z,1.92
2023-05-19T22:53:31.144Z,2.00
2023-05-19T22:55:57.672Z,1.90
2023-05-19T22:58:24.228Z,2.17
2023-05-19T23:00:50.860Z,2.30
2023-05-19T23:03:18.239Z,3.00
2023-05-19T23:05:44.846Z,2.53
2023-05-19T23:08:11.405Z,2.25
2023-05-19T23:10:38.267Z,2.35
2023-05-19T23:13:04.824Z,2.00
2023-05-19T23:15:31.495Z,2.17
2023-05-19T23:17:58.310Z,2.17
2023-05-19T23:20:25.032Z,1.92
2023-05-19T23:22:51.861Z,2.00
2023-05-19T23:25:18.462Z,2.63
2023-05-19T23:27:46.563Z,2.20
2023-05-19T23:30:13.247Z,2.20
2023-05-19T23:32:40.897Z,2.33
2023-05-19T23:35:18.714Z,2.15
2023-05-19T23:37:45.310Z,2.30
2023-05-19T23:40:12.456Z,2.40
2023-05-19T23:42:39.406Z,2.22
2023-05-19T23:45:06.564Z,2.50
2023-05-19T23:47:33.156Z,2.17
2023-05-19T23:49:59.798Z,2.20
2023-05-19T23:52:26.396Z,2.30
2023-05-19T23:54:52.964Z,2.63
2023-05-19T23:57:19.527Z,2.10
2023-05-19T23:59:46.133Z,2.58
